sensor_id;sensor_type;location;lat;lon;timestamp;temperature;humidity
21950;DHT22;11139;51.284;7.226;2023-07-30T00:01:24;20.00;99.90
21950;DHT22;11139;51.284;7.226;2023-07-30T00:03:50;20.00;99.90
21950;DHT22;11139;51.284;7.226;2023-07-30T00:06:15;20.00;99.90
21950;DHT22;11139;51.284;7.226;2023-07-30T00:08:41;20.00;99.90
21950;DHT22;11139;51.284;7.226;2023-07-30T00:11:06;19.90;99.90
21950;DHT22;11139;51.284;7.226;2023-07-30T00:13:32;19.90;99.90
21950;DHT22;11139;51.284;7.226;2023-07-30T00:15:57;19.90;99.90
21950;DHT22;11139;51.284;7.226;2023-07-30T00:18:23;19.90;99.90
21950;DHT22;11139;51.284;7.226;2023-07-30T00:20:48;19.90;99.90
21950;DHT22;11139;51.284;7.226;2023-07-30T00:23:14;19.90;99.90
21950;DHT22;11139;51.284;7.226;2023-07-30T00:25:39;19.90;99.90
21950;DHT22;11139;51.284;7.226;2023-07-30T00:28:05;19.90;99.90
21950;DHT22;11139;51.284;7.226;2023-07-30T00:30:30;19.80;99.90
21950;DHT22;11139;51.284;7.226;2023-07-30T00:32:56;19.80;99.90
21950;DHT22;11139;51.284;7.226;2023-07-30T00:35:21;19.90;99.90
21950;DHT22;11139;51.284;7.226;2023-07-30T00:37:47;19.90;99.90
21950;DHT22;11139;51.284;7.226;2023-07-30T00:40:12;19.80;99.90
21950;DHT22;11139;51.284;7.226;2023-07-30T00:42:38;19.80;99.90
21950;DHT22;11139;51.284;7.226;2023-07-30T00:45:04;19.80;99.90
21950;DHT22;11139;51.284;7.226;2023-07-30T00:47:29;19.80;99.90
21950;DHT22;11139;51.284;7.226;2023-07-30T00:49:55;19.80;99.90
21950;DHT22;11139;51.284;7.226;2023-07-30T00:52:21;19.80;99.90
21950;DHT22;11139;51.284;7.226;2023-07-30T00:54:50;19.80;99.90
21950;DHT22;11139;51.284;7.226;2023-07-30T00:57:17;19.80;99.90
21950;DHT22;11139;51.284;7.226;2023-07-30T00:59:43;19.70;99.90
21950;DHT22;11139;51.284;7.226;2023-07-30T01:02:08;19.70;99.90
21950;DHT22;11139;51.284;7.226;2023-07-30T01:04:34;19.70;99.90
21950;DHT22;11139;51.284;7.226;2023-07-30T01:07:02;19.70;99.90
21950;DHT22;11139;51.284;7.226;2023-07-30T01:09:28;19.70;99.90
21950;DHT22;11139;51.284;7.226;2023-07-30T01:11:53;19.70;99.90
21950;DHT22;11139;51.284;7.226;2023-07-30T01:14:20;19.70;99.90
21950;DHT22;11139;51.284;7.226;2023-07-30T01:16:45;19.60;99.90
21950;DHT22;11139;51.284;7.226;2023-07-30T01:19:11;19.70;99.90
21950;DHT22;11139;51.284;7.226;2023-07-30T01:21:36;19.70;99.90
21950;DHT22;11139;51.284;7.226;2023-07-30T01:24:02;19.60;99.90
21950;DHT22;11139;51.284;7.226;2023-07-30T01:26:39;19.60;99.90
21950;DHT22;11139;51.284;7.226;2023-07-30T01:29:07;19.60;99.90
21950;DHT22;11139;51.284;7.226;2023-07-30T01:31:35;19.60;99.90
21950;DHT22;11139;51.284;7.226;2023-07-30T01:34:00;19.60;99.90
21950;DHT22;11139;51.284;7.226;2023-07-30T01:36:27;19.60;99.90
21950;DHT22;11139;51.284;7.226;2023-07-30T01:38:53;19.60;99.90
21950;DHT22;11139;51.284;7.226;2023-07-30T01:41:19;19.60;99.90
21950;DHT22;11139;51.284;7.226;2023-07-30T01:43:44;19.60;99.90
21950;DHT22;11139;51.284;7.226;2023-07-30T01:46:10;19.60;99.90
21950;DHT22;11139;51.284;7.226;2023-07-30T01:48:35;19.60;99.90
21950;DHT22;11139;51.284;7.226;2023-07-30T01:51:01;19.60;99.90
21950;DHT22;11139;51.284;7.226;2023-07-30T01:53:26;19.50;99.90
21950;DHT22;11139;51.284;7.226;2023-07-30T01:55:52;19.60;99.90
21950;DHT22;11139;51.284;7.226;2023-07-30T01:58:17;19.50;99.90
21950;DHT22;11139;51.284;7.226;2023-07-30T02:00:43;19.60;99.90
21950;DHT22;11139;51.284;7.226;2023-07-30T02:03:09;19.50;99.90
21950;DHT22;11139;51.284;7.226;2023-07-30T02:05:34;19.60;99.90
21950;DHT22;11139;51.284;7.226;2023-07-30T02:08:00;19.60;99.90
21950;DHT22;11139;51.284;7.226;2023-07-30T02:10:25;19.50;99.90
21950;DHT22;11139;51.284;7.226;2023-07-30T02:12:51;19.50;99.90
21950;DHT22;11139;51.284;7.226;2023-07-30T02:15:16;19.50;99.90
21950;DHT22;11139;51.284;7.226;2023-07-30T02:17:42;19.50;99.90
21950;DHT22;11139;51.284;7.226;2023-07-30T02:20:08;19.50;99.90
21950;DHT22;11139;51.284;7.226;2023-07-30T02:22:33;19.50;99.90
21950;DHT22;11139;51.284;7.226;2023-07-30T02:24:59;19.50;99.90
21950;DHT22;11139;51.284;7.226;2023-07-30T02:27:24;19.50;99.90
21950;DHT22;11139;51.284;7.226;2023-07-30T02:29:50;19.50;99.90
21950;DHT22;11139;51.284;7.226;2023-07-30T02:32:15;19.50;99.90
21950;DHT22;11139;51.284;7.226;2023-07-30T02:34:41;19.40;99.90
21950;DHT22;11139;51.284;7.226;2023-07-30T02:37:06;19.50;99.90
21950;DHT22;11139;51.284;7.226;2023-07-30T02:39:32;19.40;99.90
21950;DHT22;11139;51.284;7.226;2023-07-30T02:41:57;19.40;99.90
21950;DHT22;11139;51.284;7.226;2023-07-30T02:44:23;19.40;99.90
21950;DHT22;11139;51.284;7.226;2023-07-30T02:46:48;19.40;99.90
21950;DHT22;11139;51.284;7.226;2023-07-30T02:49:14;19.40;99.90
21950;DHT22;11139;51.284;7.226;2023-07-30T02:51:39;19.40;99.90
21950;DHT22;11139;51.284;7.226;2023-07-30T02:54:05;19.40;99.90
21950;DHT22;11139;51.284;7.226;2023-07-30T02:56:32;19.40;99.90
21950;DHT22;11139;51.284;7.226;2023-07-30T02:58:58;19.40;99.90
21950;DHT22;11139;51.284;7.226;2023-07-30T03:01:23;19.30;99.90
21950;DHT22;11139;51.284;7.226;2023-07-30T03:03:49;19.30;99.90
21950;DHT22;11139;51.284;7.226;2023-07-30T03:06:14;19.30;99.90
21950;DHT22;11139;51.284;7.226;2023-07-30T03:08:45;19.30;99.90
21950;DHT22;11139;51.284;7.226;2023-07-30T03:11:10;19.30;99.90
21950;DHT22;11139;51.284;7.226;2023-07-30T03:13:36;19.30;99.90
21950;DHT22;11139;51.284;7.226;2023-07-30T03:16:01;19.20;99.90
21950;DHT22;11139;51.284;7.226;2023-07-30T03:18:27;19.30;99.90
21950;DHT22;11139;51.284;7.226;2023-07-30T03:20:57;19.20;99.90
21950;DHT22;11139;51.284;7.226;2023-07-30T03:23:22;19.20;99.90
21950;DHT22;11139;51.284;7.226;2023-07-30T03:25:48;19.20;99.90
21950;DHT22;11139;51.284;7.226;2023-07-30T03:28:13;19.20;99.90
21950;DHT22;11139;51.284;7.226;2023-07-30T03:30:39;19.20;99.90
21950;DHT22;11139;51.284;7.226;2023-07-30T03:33:04;19.20;99.90
21950;DHT22;11139;51.284;7.226;2023-07-30T03:35:32;19.20;99.90
21950;DHT22;11139;51.284;7.226;2023-07-30T03:37:57;19.20;99.90
21950;DHT22;11139;51.284;7.226;2023-07-30T03:40:23;19.20;99.90
21950;DHT22;11139;51.284;7.226;2023-07-30T03:42:48;19.20;99.90
21950;DHT22;11139;51.284;7.226;2023-07-30T03:45:14;19.20;99.90
21950;DHT22;11139;51.284;7.226;2023-07-30T03:47:39;19.10;99.90
21950;DHT22;11139;51.284;7.226;2023-07-30T03:50:05;19.10;99.90
21950;DHT22;11139;51.284;7.226;2023-07-30T03:52:30;19.10;99.90
21950;DHT22;11139;51.284;7.226;2023-07-30T03:54:56;19.10;99.90
21950;DHT22;11139;51.284;7.226;2023-07-30T03:57:21;19.10;99.90
21950;DHT22;11139;51.284;7.226;2023-07-30T03:59:49;19.10;99.90
21950;DHT22;11139;51.284;7.226;2023-07-30T04:02:15;19.10;99.90
21950;DHT22;11139;51.284;7.226;2023-07-30T04:04:41;19.10;99.90
21950;DHT22;11139;51.284;7.226;2023-07-30T04:07:08;19.00;99.90
21950;DHT22;11139;51.284;7.226;2023-07-30T04:09:34;19.00;99.90
21950;DHT22;11139;51.284;7.226;2023-07-30T04:11:59;19.10;99.90
21950;DHT22;11139;51.284;7.226;2023-07-30T04:14:25;19.00;99.90
21950;DHT22;11139;51.284;7.226;2023-07-30T04:16:50;19.00;99.90
21950;DHT22;11139;51.284;7.226;2023-07-30T04:19:16;19.00;99.90
21950;DHT22;11139;51.284;7.226;2023-07-30T04:21:41;19.00;99.90
21950;DHT22;11139;51.284;7.226;2023-07-30T04:24:07;19.00;99.90
21950;DHT22;11139;51.284;7.226;2023-07-30T04:26:32;18.90;99.90
21950;DHT22;11139;51.284;7.226;2023-07-30T04:28:58;19.00;99.90
21950;DHT22;11139;51.284;7.226;2023-07-30T04:31:23;19.00;99.90
21950;DHT22;11139;51.284;7.226;2023-07-30T04:33:49;19.00;99.90
21950;DHT22;11139;51.284;7.226;2023-07-30T04:36:14;18.90;99.90
21950;DHT22;11139;51.284;7.226;2023-07-30T04:38:40;18.90;99.90
21950;DHT22;11139;51.284;7.226;2023-07-30T04:41:05;18.90;99.90
21950;DHT22;11139;51.284;7.226;2023-07-30T04:43:31;18.90;99.90
21950;DHT22;11139;51.284;7.226;2023-07-30T04:45:56;18.90;99.90
21950;DHT22;11139;51.284;7.226;2023-07-30T04:48:22;18.90;99.90
21950;DHT22;11139;51.284;7.226;2023-07-30T04:50:47;18.90;99.90
21950;DHT22;11139;51.284;7.226;2023-07-30T04:53:12;18.90;99.90
21950;DHT22;11139;51.284;7.226;2023-07-30T04:55:38;18.90;99.90
21950;DHT22;11139;51.284;7.226;2023-07-30T04:58:03;18.90;99.90
21950;DHT22;11139;51.284;7.226;2023-07-30T05:00:29;18.80;99.90
21950;DHT22;11139;51.284;7.226;2023-07-30T05:02:54;18.80;99.90
21950;DHT22;11139;51.284;7.226;2023-07-30T05:05:20;18.80;99.90
21950;DHT22;11139;51.284;7.226;2023-07-30T05:07:45;18.80;99.90
21950;DHT22;11139;51.284;7.226;2023-07-30T05:10:11;18.80;99.90
21950;DHT22;11139;51.284;7.226;2023-07-30T05:12:36;18.80;99.90
21950;DHT22;11139;51.284;7.226;2023-07-30T05:15:02;18.80;99.90
21950;DHT22;11139;51.284;7.226;2023-07-30T05:17:28;18.80;99.90
21950;DHT22;11139;51.284;7.226;2023-07-30T05:19:54;18.80;99.90
21950;DHT22;11139;51.284;7.226;2023-07-30T05:22:19;18.80;99.90
21950;DHT22;11139;51.284;7.226;2023-07-30T05:24:45;18.70;99.90
21950;DHT22;11139;51.284;7.226;2023-07-30T05:27:10;18.70;99.90
21950;DHT22;11139;51.284;7.226;2023-07-30T05:29:36;18.70;99.90
21950;DHT22;11139;51.284;7.226;2023-07-30T05:32:01;18.70;99.90
21950;DHT22;11139;51.284;7.226;2023-07-30T05:34:27;18.70;99.90
21950;DHT22;11139;51.284;7.226;2023-07-30T05:36:52;18.70;99.90
21950;DHT22;11139;51.284;7.226;2023-07-30T05:39:18;18.70;99.90
21950;DHT22;11139;51.284;7.226;2023-07-30T05:41:43;18.70;99.90
21950;DHT22;11139;51.284;7.226;2023-07-30T05:44:09;18.70;99.90
21950;DHT22;11139;51.284;7.226;2023-07-30T05:46:34;18.60;99.90
21950;DHT22;11139;51.284;7.226;2023-07-30T05:49:00;18.60;99.90
21950;DHT22;11139;51.284;7.226;2023-07-30T05:51:25;18.60;99.90
21950;DHT22;11139;51.284;7.226;2023-07-30T05:53:51;18.60;99.90
21950;DHT22;11139;51.284;7.226;2023-07-30T05:56:16;18.50;99.90
21950;DHT22;11139;51.284;7.226;2023-07-30T05:58:43;18.50;99.90
21950;DHT22;11139;51.284;7.226;2023-07-30T06:01:09;18.50;99.90
21950;DHT22;11139;51.284;7.226;2023-07-30T06:03:34;18.50;99.90
21950;DHT22;11139;51.284;7.226;2023-07-30T06:06:03;18.50;99.90
21950;DHT22;11139;51.284;7.226;2023-07-30T06:08:29;18.50;99.90
21950;DHT22;11139;51.284;7.226;2023-07-30T06:10:56;18.50;99.90
21950;DHT22;11139;51.284;7.226;2023-07-30T06:13:25;18.50;99.90
21950;DHT22;11139;51.284;7.226;2023-07-30T06:15:50;18.40;99.90
21950;DHT22;11139;51.284;7.226;2023-07-30T06:18:16;18.40;99.90
21950;DHT22;11139;51.284;7.226;2023-07-30T06:20:41;18.40;99.90
21950;DHT22;11139;51.284;7.226;2023-07-30T06:23:07;18.40;99.90
21950;DHT22;11139;51.284;7.226;2023-07-30T06:25:32;18.40;99.90
21950;DHT22;11139;51.284;7.226;2023-07-30T06:27:58;18.40;99.90
21950;DHT22;11139;51.284;7.226;2023-07-30T06:30:24;18.40;99.90
21950;DHT22;11139;51.284;7.226;2023-07-30T06:32:49;18.40;99.90
21950;DHT22;11139;51.284;7.226;2023-07-30T06:35:15;18.30;99.90
21950;DHT22;11139;51.284;7.226;2023-07-30T06:37:40;18.30;99.90
21950;DHT22;11139;51.284;7.226;2023-07-30T06:40:06;18.40;99.90
21950;DHT22;11139;51.284;7.226;2023-07-30T06:42:32;18.40;99.90
21950;DHT22;11139;51.284;7.226;2023-07-30T06:44:57;18.30;99.90
21950;DHT22;11139;51.284;7.226;2023-07-30T06:47:23;18.30;99.90
21950;DHT22;11139;51.284;7.226;2023-07-30T06:49:48;18.30;99.90
21950;DHT22;11139;51.284;7.226;2023-07-30T06:52:14;18.30;99.90
21950;DHT22;11139;51.284;7.226;2023-07-30T06:54:39;18.40;99.90
21950;DHT22;11139;51.284;7.226;2023-07-30T06:57:05;18.30;99.90
21950;DHT22;11139;51.284;7.226;2023-07-30T06:59:30;18.30;99.90
21950;DHT22;11139;51.284;7.226;2023-07-30T07:01:55;18.30;99.90
21950;DHT22;11139;51.284;7.226;2023-07-30T07:04:21;18.30;99.90
21950;DHT22;11139;51.284;7.226;2023-07-30T07:06:46;18.30;99.90
21950;DHT22;11139;51.284;7.226;2023-07-30T07:09:12;18.30;99.90
21950;DHT22;11139;51.284;7.226;2023-07-30T07:11:37;18.30;99.90
21950;DHT22;11139;51.284;7.226;2023-07-30T07:14:03;18.30;99.90
21950;DHT22;11139;51.284;7.226;2023-07-30T07:16:28;18.30;99.90
21950;DHT22;11139;51.284;7.226;2023-07-30T07:18:54;18.30;99.90
21950;DHT22;11139;51.284;7.226;2023-07-30T07:21:19;18.30;99.90
21950;DHT22;11139;51.284;7.226;2023-07-30T07:23:45;18.20;99.90
21950;DHT22;11139;51.284;7.226;2023-07-30T07:26:11;18.30;99.90
21950;DHT22;11139;51.284;7.226;2023-07-30T07:28:36;18.30;99.90
21950;DHT22;11139;51.284;7.226;2023-07-30T07:31:02;18.30;99.90
21950;DHT22;11139;51.284;7.226;2023-07-30T07:33:27;18.20;99.90
21950;DHT22;11139;51.284;7.226;2023-07-30T07:36:03;18.30;99.90
21950;DHT22;11139;51.284;7.226;2023-07-30T07:38:28;18.20;99.90
21950;DHT22;11139;51.284;7.226;2023-07-30T07:40:54;18.20;99.90
21950;DHT22;11139;51.284;7.226;2023-07-30T07:43:19;18.20;99.90
21950;DHT22;11139;51.284;7.226;2023-07-30T07:45:45;18.20;99.90
21950;DHT22;11139;51.284;7.226;2023-07-30T07:48:10;18.20;99.90
21950;DHT22;11139;51.284;7.226;2023-07-30T07:50:36;18.20;99.90
21950;DHT22;11139;51.284;7.226;2023-07-30T07:53:01;18.20;99.90
21950;DHT22;11139;51.284;7.226;2023-07-30T07:55:29;18.20;99.90
21950;DHT22;11139;51.284;7.226;2023-07-30T07:57:55;18.20;99.90
21950;DHT22;11139;51.284;7.226;2023-07-30T08:00:20;18.20;99.90
21950;DHT22;11139;51.284;7.226;2023-07-30T08:02:47;18.20;99.90
21950;DHT22;11139;51.284;7.226;2023-07-30T08:05:13;18.20;99.90
21950;DHT22;11139;51.284;7.226;2023-07-30T08:07:38;18.20;99.90
21950;DHT22;11139;51.284;7.226;2023-07-30T08:10:04;18.20;99.90
21950;DHT22;11139;51.284;7.226;2023-07-30T08:12:31;18.20;99.90
21950;DHT22;11139;51.284;7.226;2023-07-30T08:14:57;18.20;99.90
21950;DHT22;11139;51.284;7.226;2023-07-30T08:17:22;18.20;99.90
21950;DHT22;11139;51.284;7.226;2023-07-30T08:19:51;18.20;99.90
21950;DHT22;11139;51.284;7.226;2023-07-30T08:22:16;18.20;99.90
21950;DHT22;11139;51.284;7.226;2023-07-30T08:24:42;18.20;99.90
21950;DHT22;11139;51.284;7.226;2023-07-30T08:27:07;18.20;99.90
21950;DHT22;11139;51.284;7.226;2023-07-30T08:29:33;18.20;99.90
21950;DHT22;11139;51.284;7.226;2023-07-30T08:31:59;18.10;99.90
21950;DHT22;11139;51.284;7.226;2023-07-30T08:34:24;18.20;99.90
21950;DHT22;11139;51.284;7.226;2023-07-30T08:36:50;18.20;99.90
21950;DHT22;11139;51.284;7.226;2023-07-30T08:39:15;18.10;99.90
21950;DHT22;11139;51.284;7.226;2023-07-30T08:41:41;18.20;99.90
21950;DHT22;11139;51.284;7.226;2023-07-30T08:44:07;18.20;99.90
21950;DHT22;11139;51.284;7.226;2023-07-30T08:46:34;18.20;99.90
21950;DHT22;11139;51.284;7.226;2023-07-30T08:48:59;18.20;99.90
21950;DHT22;11139;51.284;7.226;2023-07-30T08:51:26;18.20;99.90
21950;DHT22;11139;51.284;7.226;2023-07-30T08:53:51;18.20;99.90
21950;DHT22;11139;51.284;7.226;2023-07-30T08:56:17;18.20;99.90
21950;DHT22;11139;51.284;7.226;2023-07-30T08:58:43;18.20;99.90
21950;DHT22;11139;51.284;7.226;2023-07-30T09:01:09;18.20;99.90
21950;DHT22;11139;51.284;7.226;2023-07-30T09:03:37;18.20;99.90
21950;DHT22;11139;51.284;7.226;2023-07-30T09:06:03;18.20;99.90
21950;DHT22;11139;51.284;7.226;2023-07-30T09:08:28;18.10;99.90
21950;DHT22;11139;51.284;7.226;2023-07-30T09:10:55;18.10;99.90
21950;DHT22;11139;51.284;7.226;2023-07-30T09:13:21;18.10;99.90
21950;DHT22;11139;51.284;7.226;2023-07-30T09:15:48;18.10;99.90
21950;DHT22;11139;51.284;7.226;2023-07-30T09:18:16;18.10;99.90
21950;DHT22;11139;51.284;7.226;2023-07-30T09:20:41;18.10;99.90
21950;DHT22;11139;51.284;7.226;2023-07-30T09:23:08;18.10;99.90
21950;DHT22;11139;51.284;7.226;2023-07-30T09:25:34;18.10;99.90
21950;DHT22;11139;51.284;7.226;2023-07-30T09:27:59;18.10;99.90
21950;DHT22;11139;51.284;7.226;2023-07-30T09:30:25;18.10;99.90
21950;DHT22;11139;51.284;7.226;2023-07-30T09:32:56;18.10;99.90
21950;DHT22;11139;51.284;7.226;2023-07-30T09:35:22;18.10;99.90
21950;DHT22;11139;51.284;7.226;2023-07-30T09:37:50;18.10;99.90
21950;DHT22;11139;51.284;7.226;2023-07-30T09:40:15;18.10;99.90
21950;DHT22;11139;51.284;7.226;2023-07-30T09:42:46;18.10;99.90
21950;DHT22;11139;51.284;7.226;2023-07-30T09:45:23;18.10;99.90
21950;DHT22;11139;51.284;7.226;2023-07-30T09:47:49;18.10;99.90
21950;DHT22;11139;51.284;7.226;2023-07-30T09:50:15;18.10;99.90
21950;DHT22;11139;51.284;7.226;2023-07-30T09:52:44;18.10;99.90
21950;DHT22;11139;51.284;7.226;2023-07-30T09:55:10;18.10;99.90
21950;DHT22;11139;51.284;7.226;2023-07-30T09:57:36;18.10;99.90
21950;DHT22;11139;51.284;7.226;2023-07-30T10:00:05;18.20;99.90
21950;DHT22;11139;51.284;7.226;2023-07-30T10:02:31;18.10;99.90
21950;DHT22;11139;51.284;7.226;2023-07-30T10:04:59;18.10;99.90
21950;DHT22;11139;51.284;7.226;2023-07-30T10:07:25;18.20;99.90
21950;DHT22;11139;51.284;7.226;2023-07-30T10:09:52;18.20;99.90
21950;DHT22;11139;51.284;7.226;2023-07-30T10:12:24;18.20;99.90
21950;DHT22;11139;51.284;7.226;2023-07-30T10:14:52;18.20;99.90
21950;DHT22;11139;51.284;7.226;2023-07-30T10:17:18;18.10;99.90
21950;DHT22;11139;51.284;7.226;2023-07-30T10:19:47;18.20;99.90
21950;DHT22;11139;51.284;7.226;2023-07-30T10:24:40;18.20;99.90
21950;DHT22;11139;51.284;7.226;2023-07-30T10:27:06;18.20;99.90
21950;DHT22;11139;51.284;7.226;2023-07-30T10:29:31;18.10;99.90
21950;DHT22;11139;51.284;7.226;2023-07-30T10:31:59;18.20;99.90
21950;DHT22;11139;51.284;7.226;2023-07-30T10:34:26;18.10;99.90
21950;DHT22;11139;51.284;7.226;2023-07-30T10:36:54;18.20;99.90
21950;DHT22;11139;51.284;7.226;2023-07-30T10:39:21;18.20;99.90
21950;DHT22;11139;51.284;7.226;2023-07-30T10:41:55;18.20;99.90
21950;DHT22;11139;51.284;7.226;2023-07-30T10:44:24;18.20;99.90
21950;DHT22;11139;51.284;7.226;2023-07-30T10:46:51;18.20;99.90
21950;DHT22;11139;51.284;7.226;2023-07-30T10:49:17;18.20;99.90
21950;DHT22;11139;51.284;7.226;2023-07-30T10:51:42;18.20;99.90
21950;DHT22;11139;51.284;7.226;2023-07-30T10:54:08;18.20;99.90
21950;DHT22;11139;51.284;7.226;2023-07-30T10:56:34;18.20;99.90
21950;DHT22;11139;51.284;7.226;2023-07-30T10:59:00;18.20;99.90
21950;DHT22;11139;51.284;7.226;2023-07-30T11:01:28;18.20;99.90
21950;DHT22;11139;51.284;7.226;2023-07-30T11:03:53;18.20;99.90
21950;DHT22;11139;51.284;7.226;2023-07-30T11:06:25;18.20;99.90
21950;DHT22;11139;51.284;7.226;2023-07-30T11:08:51;18.20;99.90
21950;DHT22;11139;51.284;7.226;2023-07-30T11:11:17;18.20;99.90
21950;DHT22;11139;51.284;7.226;2023-07-30T11:13:43;18.20;99.90
21950;DHT22;11139;51.284;7.226;2023-07-30T11:16:11;18.20;99.90
21950;DHT22;11139;51.284;7.226;2023-07-30T11:18:37;18.20;99.90
21950;DHT22;11139;51.284;7.226;2023-07-30T11:21:03;18.20;99.90
21950;DHT22;11139;51.284;7.226;2023-07-30T11:23:29;18.20;99.90
21950;DHT22;11139;51.284;7.226;2023-07-30T11:25:54;18.30;99.90
21950;DHT22;11139;51.284;7.226;2023-07-30T11:28:29;18.30;99.90
21950;DHT22;11139;51.284;7.226;2023-07-30T11:30:57;18.30;99.90
21950;DHT22;11139;51.284;7.226;2023-07-30T11:33:23;18.30;99.90
21950;DHT22;11139;51.284;7.226;2023-07-30T11:35:49;18.30;99.90
21950;DHT22;11139;51.284;7.226;2023-07-30T11:38:14;18.30;99.90
21950;DHT22;11139;51.284;7.226;2023-07-30T11:40:40;18.30;99.90
21950;DHT22;11139;51.284;7.226;2023-07-30T11:43:05;18.30;99.90
21950;DHT22;11139;51.284;7.226;2023-07-30T11:45:31;18.30;99.90
21950;DHT22;11139;51.284;7.226;2023-07-30T11:48:06;18.30;99.90
21950;DHT22;11139;51.284;7.226;2023-07-30T11:53:09;18.30;99.90
21950;DHT22;11139;51.284;7.226;2023-07-30T11:55:38;18.30;99.90
21950;DHT22;11139;51.284;7.226;2023-07-30T11:58:04;18.30;99.90
21950;DHT22;11139;51.284;7.226;2023-07-30T12:00:31;18.30;99.90
21950;DHT22;11139;51.284;7.226;2023-07-30T12:02:59;18.30;99.90
21950;DHT22;11139;51.284;7.226;2023-07-30T12:05:45;18.30;99.90
21950;DHT22;11139;51.284;7.226;2023-07-30T12:08:16;18.20;99.90
21950;DHT22;11139;51.284;7.226;2023-07-30T12:13:15;18.30;99.90
21950;DHT22;11139;51.284;7.226;2023-07-30T12:15:42;18.30;99.90
21950;DHT22;11139;51.284;7.226;2023-07-30T12:18:08;18.30;99.90
21950;DHT22;11139;51.284;7.226;2023-07-30T12:20:33;18.30;99.90
21950;DHT22;11139;51.284;7.226;2023-07-30T12:22:59;18.30;99.90
21950;DHT22;11139;51.284;7.226;2023-07-30T12:25:24;18.30;99.90
21950;DHT22;11139;51.284;7.226;2023-07-30T12:27:50;18.30;99.90
21950;DHT22;11139;51.284;7.226;2023-07-30T12:30:15;18.30;99.90
21950;DHT22;11139;51.284;7.226;2023-07-30T12:32:41;18.30;99.90
21950;DHT22;11139;51.284;7.226;2023-07-30T12:35:06;18.30;99.90
21950;DHT22;11139;51.284;7.226;2023-07-30T12:37:32;18.30;99.90
21950;DHT22;11139;51.284;7.226;2023-07-30T12:40:00;18.30;99.90
21950;DHT22;11139;51.284;7.226;2023-07-30T12:42:26;18.30;99.90
21950;DHT22;11139;51.284;7.226;2023-07-30T12:44:51;18.30;99.90
21950;DHT22;11139;51.284;7.226;2023-07-30T12:47:17;18.30;99.90
21950;DHT22;11139;51.284;7.226;2023-07-30T12:49:42;18.30;99.90
21950;DHT22;11139;51.284;7.226;2023-07-30T12:52:08;18.30;99.90
21950;DHT22;11139;51.284;7.226;2023-07-30T12:54:33;18.40;99.90
21950;DHT22;11139;51.284;7.226;2023-07-30T12:56:59;18.40;99.90
21950;DHT22;11139;51.284;7.226;2023-07-30T12:59:24;18.40;99.90
21950;DHT22;11139;51.284;7.226;2023-07-30T13:01:49;18.40;99.90
21950;DHT22;11139;51.284;7.226;2023-07-30T13:04:15;18.30;99.90
21950;DHT22;11139;51.284;7.226;2023-07-30T13:06:40;18.40;99.90
21950;DHT22;11139;51.284;7.226;2023-07-30T13:09:06;18.40;99.90
21950;DHT22;11139;51.284;7.226;2023-07-30T13:11:31;18.40;99.90
21950;DHT22;11139;51.284;7.226;2023-07-30T13:13:57;18.40;99.90
21950;DHT22;11139;51.284;7.226;2023-07-30T13:16:22;18.40;99.90
21950;DHT22;11139;51.284;7.226;2023-07-30T13:18:48;18.50;99.90
21950;DHT22;11139;51.284;7.226;2023-07-30T13:21:13;18.50;99.90
21950;DHT22;11139;51.284;7.226;2023-07-30T13:23:39;18.50;99.90
21950;DHT22;11139;51.284;7.226;2023-07-30T13:26:04;18.50;99.90
21950;DHT22;11139;51.284;7.226;2023-07-30T13:28:30;18.50;99.90
21950;DHT22;11139;51.284;7.226;2023-07-30T13:30:56;18.50;99.90
21950;DHT22;11139;51.284;7.226;2023-07-30T13:33:22;18.50;99.90
21950;DHT22;11139;51.284;7.226;2023-07-30T13:35:47;18.50;99.90
21950;DHT22;11139;51.284;7.226;2023-07-30T13:38:13;18.50;99.90
21950;DHT22;11139;51.284;7.226;2023-07-30T13:40:39;18.50;99.90
21950;DHT22;11139;51.284;7.226;2023-07-30T13:43:04;18.50;99.90
21950;DHT22;11139;51.284;7.226;2023-07-30T13:45:30;18.50;99.90
21950;DHT22;11139;51.284;7.226;2023-07-30T13:47:55;18.50;99.90
21950;DHT22;11139;51.284;7.226;2023-07-30T13:50:20;18.50;99.90
21950;DHT22;11139;51.284;7.226;2023-07-30T13:52:46;18.50;99.90
21950;DHT22;11139;51.284;7.226;2023-07-30T13:55:12;18.60;99.90
21950;DHT22;11139;51.284;7.226;2023-07-30T13:57:37;18.60;99.90
21950;DHT22;11139;51.284;7.226;2023-07-30T14:00:03;18.60;99.90
21950;DHT22;11139;51.284;7.226;2023-07-30T14:02:29;18.60;99.90
21950;DHT22;11139;51.284;7.226;2023-07-30T14:04:54;18.70;99.90
21950;DHT22;11139;51.284;7.226;2023-07-30T14:07:20;18.60;99.90
21950;DHT22;11139;51.284;7.226;2023-07-30T14:09:45;18.60;99.90
21950;DHT22;11139;51.284;7.226;2023-07-30T14:12:10;18.60;99.90
21950;DHT22;11139;51.284;7.226;2023-07-30T14:14:36;18.70;99.90
21950;DHT22;11139;51.284;7.226;2023-07-30T14:17:01;18.70;99.90
21950;DHT22;11139;51.284;7.226;2023-07-30T14:19:31;18.70;99.90
21950;DHT22;11139;51.284;7.226;2023-07-30T14:21:57;18.60;99.90
21950;DHT22;11139;51.284;7.226;2023-07-30T14:24:22;18.60;99.90
21950;DHT22;11139;51.284;7.226;2023-07-30T14:26:48;18.60;99.90
21950;DHT22;11139;51.284;7.226;2023-07-30T14:29:14;18.60;99.90
21950;DHT22;11139;51.284;7.226;2023-07-30T14:31:39;18.60;99.90
21950;DHT22;11139;51.284;7.226;2023-07-30T14:34:05;18.70;99.90
21950;DHT22;11139;51.284;7.226;2023-07-30T14:36:30;18.70;99.90
21950;DHT22;11139;51.284;7.226;2023-07-30T14:38:55;18.70;99.90
21950;DHT22;11139;51.284;7.226;2023-07-30T14:41:21;18.70;99.90
21950;DHT22;11139;51.284;7.226;2023-07-30T14:43:46;18.60;99.90
21950;DHT22;11139;51.284;7.226;2023-07-30T14:46:12;18.70;99.90
21950;DHT22;11139;51.284;7.226;2023-07-30T14:48:40;18.60;99.90
21950;DHT22;11139;51.284;7.226;2023-07-30T14:51:06;18.60;99.90
21950;DHT22;11139;51.284;7.226;2023-07-30T14:53:32;18.60;99.90
21950;DHT22;11139;51.284;7.226;2023-07-30T14:55:58;18.60;99.90
21950;DHT22;11139;51.284;7.226;2023-07-30T14:58:23;18.70;99.90
21950;DHT22;11139;51.284;7.226;2023-07-30T15:00:49;18.60;99.90
21950;DHT22;11139;51.284;7.226;2023-07-30T15:03:14;18.60;99.90
21950;DHT22;11139;51.284;7.226;2023-07-30T15:05:40;18.60;99.90
21950;DHT22;11139;51.284;7.226;2023-07-30T15:08:05;18.60;99.90
21950;DHT22;11139;51.284;7.226;2023-07-30T15:10:31;18.60;99.90
21950;DHT22;11139;51.284;7.226;2023-07-30T15:12:56;18.60;99.90
21950;DHT22;11139;51.284;7.226;2023-07-30T15:15:22;18.60;99.90
21950;DHT22;11139;51.284;7.226;2023-07-30T15:17:47;18.60;99.90
21950;DHT22;11139;51.284;7.226;2023-07-30T15:20:13;18.70;99.90
21950;DHT22;11139;51.284;7.226;2023-07-30T15:22:38;18.60;99.90
21950;DHT22;11139;51.284;7.226;2023-07-30T15:25:04;18.70;99.90
21950;DHT22;11139;51.284;7.226;2023-07-30T15:27:30;18.70;99.90
21950;DHT22;11139;51.284;7.226;2023-07-30T15:29:55;18.70;99.90